createdAt,value
2019-03-18T00:02:10.493Z,94.50
2019-03-18T00:04:39.946Z,94.70
2019-03-18T00:07:09.199Z,93.40
2019-03-18T00:09:39.690Z,93.00
2019-03-18T00:12:09.287Z,93.30
2019-03-18T00:14:38.435Z,93.70
2019-03-18T00:17:08.247Z,94.20
2019-03-18T00:19:37.715Z,93.50
2019-03-18T00:22:07.254Z,93.00
2019-03-18T00:24:37.101Z,92.30
2019-03-18T00:27:13.702Z,92.10
2019-03-18T00:29:43.047Z,91.60
2019-03-18T00:32:12.581Z,91.60
2019-03-18T00:34:42.264Z,91.80
2019-03-18T00:37:12.489Z,91.50
2019-03-18T00:39:42.543Z,91.50
2019-03-18T00:42:12.731Z,90.40
2019-03-18T00:44:42.689Z,90.00
2019-03-18T00:47:12.043Z,88.90
2019-03-18T00:49:41.563Z,86.90
2019-03-18T00:52:11.391Z,85.50
2019-03-18T00:54:44.655Z,85.30
2019-03-18T00:57:13.743Z,84.20
2019-03-18T00:59:43.084Z,83.20
2019-03-18T01:02:12.823Z,83.00
2019-03-18T01:04:42.273Z,81.70
2019-03-18T01:07:11.931Z,80.50
2019-03-18T01:09:41.943Z,81.30
2019-03-18T01:12:11.224Z,79.50
2019-03-18T01:14:40.252Z,77.80
2019-03-18T01:17:09.391Z,77.60
2019-03-18T01:19:39.011Z,77.30
2019-03-18T01:22:09.103Z,78.00
2019-03-18T01:24:38.732Z,78.80
2019-03-18T01:27:08.263Z,79.10
2019-03-18T01:29:37.825Z,79.00
2019-03-18T01:32:08.945Z,78.60
2019-03-18T01:34:38.503Z,79.50
2019-03-18T01:37:07.692Z,78.80
2019-03-18T01:39:37.085Z,78.30
2019-03-18T01:42:06.390Z,78.40
2019-03-18T01:44:36.168Z,78.40
2019-03-18T01:47:05.805Z,78.50
2019-03-18T01:49:35.087Z,78.10
2019-03-18T01:52:05.735Z,78.50
2019-03-18T01:54:34.891Z,77.30
2019-03-18T01:57:04.059Z,77.30
2019-03-18T01:59:33.464Z,77.00
2019-03-18T02:02:03.043Z,77.20
2019-03-18T02:04:32.604Z,77.10
2019-03-18T02:07:02.149Z,77.80
2019-03-18T02:09:31.851Z,79.10
2019-03-18T02:12:01.330Z,80.20
2019-03-18T02:14:31.043Z,81.70
2019-03-18T02:17:00.586Z,87.10
2019-03-18T02:19:30.107Z,91.60
2019-03-18T02:21:59.571Z,95.10
2019-03-18T02:24:29.163Z,99.20
2019-03-18T02:26:58.823Z,99.90
2019-03-18T02:29:28.026Z,99.90
2019-03-18T02:31:57.931Z,99.90
2019-03-18T02:34:27.772Z,99.90
2019-03-18T02:36:57.383Z,99.90
2019-03-18T02:39:27.050Z,99.90
2019-03-18T02:41:57.084Z,99.90
2019-03-18T02:44:27.383Z,99.90
2019-03-18T02:46:57.131Z,99.90
2019-03-18T02:49:27.294Z,99.90
2019-03-18T02:51:59.662Z,99.90
2019-03-18T02:54:29.533Z,99.90
2019-03-18T02:56:58.909Z,99.90
2019-03-18T02:59:28.402Z,99.90
2019-03-18T03:01:57.824Z,99.90
2019-03-18T03:04:27.067Z,99.90
2019-03-18T03:06:56.684Z,99.90
2019-03-18T03:09:26.966Z,99.90
2019-03-18T03:11:56.204Z,99.90
2019-03-18T03:14:25.627Z,99.90
2019-03-18T03:16:55.376Z,99.90
2019-03-18T03:19:24.794Z,99.90
2019-03-18T03:21:54.542Z,99.90
2019-03-18T03:24:23.933Z,99.90
2019-03-18T03:26:53.644Z,99.90
2019-03-18T03:29:23.066Z,99.90
2019-03-18T03:31:52.528Z,99.90
2019-03-18T03:34:22.304Z,99.90
2019-03-18T03:36:51.932Z,99.90
2019-03-18T03:39:21.582Z,99.90
2019-03-18T03:41:50.987Z,99.90
2019-03-18T03:44:20.343Z,99.90
2019-03-18T03:46:49.644Z,99.90
2019-03-18T03:49:19.122Z,99.90
2019-03-18T03:51:48.604Z,99.90
2019-03-18T03:54:18.167Z,99.90
2019-03-18T03:56:47.612Z,99.90
2019-03-18T03:59:17.605Z,99.90
2019-03-18T04:01:47.511Z,99.90
2019-03-18T04:04:17.551Z,99.90
2019-03-18T04:06:47.264Z,99.90
2019-03-18T04:09:16.584Z,99.90
2019-03-18T04:11:46.485Z,99.90
2019-03-18T04:14:16.309Z,99.90
2019-03-18T04:16:55.853Z,99.90
2019-03-18T04:19:16.677Z,99.90
2019-03-18T04:21:50.382Z,99.90
2019-03-18T04:24:17.611Z,99.90
2019-03-18T04:26:47.004Z,99.90
2019-03-18T04:29:16.416Z,99.90
2019-03-18T04:31:46.023Z,99.90
2019-03-18T04:34:15.742Z,99.90
2019-03-18T04:36:45.603Z,99.90
2019-03-18T04:39:15.611Z,99.90
2019-03-18T04:41:45.783Z,99.90
2019-03-18T04:44:15.143Z,99.90
2019-03-18T04:46:45.423Z,99.90
2019-03-18T04:49:15.638Z,99.90
2019-03-18T04:51:44.970Z,99.90
2019-03-18T04:54:14.191Z,99.90
2019-03-18T04:56:43.563Z,99.90
2019-03-18T04:59:13.343Z,99.90
2019-03-18T05:01:42.923Z,99.90
2019-03-18T05:04:12.331Z,99.90
2019-03-18T05:06:41.663Z,99.90
2019-03-18T05:09:12.699Z,99.90
2019-03-18T05:11:43.180Z,99.90
2019-03-18T05:14:12.341Z,99.90
2019-03-18T05:16:41.930Z,99.90
2019-03-18T05:19:11.643Z,99.90
2019-03-18T05:21:41.109Z,99.90
2019-03-18T05:24:10.493Z,99.90
2019-03-18T05:26:40.172Z,99.90
2019-03-18T05:29:09.590Z,99.90
2019-03-18T05:31:39.579Z,99.90
2019-03-18T05:34:09.627Z,99.90
2019-03-18T05:36:39.833Z,99.90
2019-03-18T05:39:09.166Z,99.90
2019-03-18T05:41:38.734Z,99.90
2019-03-18T05:44:08.662Z,99.90
2019-03-18T05:46:38.603Z,99.90
2019-03-18T05:49:08.326Z,99.90
2019-03-18T05:51:38.580Z,99.90
2019-03-18T05:54:08.762Z,99.90
2019-03-18T05:56:38.224Z,99.90
2019-03-18T05:59:09.163Z,99.90
2019-03-18T06:01:38.584Z,99.90
2019-03-18T06:04:07.931Z,99.90
2019-03-18T06:06:37.865Z,99.90
2019-03-18T06:09:07.804Z,99.90
2019-03-18T06:11:37.346Z,99.90
2019-03-18T06:14:07.186Z,99.90
2019-03-18T06:16:36.663Z,99.90
2019-03-18T06:19:06.965Z,99.90
2019-03-18T06:21:36.705Z,99.90
2019-03-18T06:24:06.792Z,99.90
2019-03-18T06:26:36.513Z,99.90
2019-03-18T06:29:05.927Z,99.90
2019-03-18T06:31:35.470Z,99.90
2019-03-18T06:34:05.290Z,99.90
2019-03-18T06:36:34.725Z,99.90
2019-03-18T06:39:05.771Z,99.90
2019-03-18T06:41:35.414Z,99.90
2019-03-18T06:44:04.897Z,99.90
2019-03-18T06:46:34.502Z,99.90
2019-03-18T06:49:03.901Z,99.90
2019-03-18T06:51:33.492Z,99.90
2019-03-18T06:54:03.265Z,99.90
2019-03-18T06:56:34.505Z,99.90
2019-03-18T06:59:04.437Z,99.90
2019-03-18T07:01:33.790Z,99.90
2019-03-18T07:04:04.344Z,99.90
2019-03-18T07:06:34.543Z,99.90
2019-03-18T07:09:04.550Z,99.90
2019-03-18T07:11:34.603Z,99.90
2019-03-18T07:14:06.012Z,99.90
2019-03-18T07:16:35.531Z,99.90
2019-03-18T07:19:05.279Z,99.90
2019-03-18T07:21:35.144Z,99.90
2019-03-18T07:24:04.565Z,99.90
2019-03-18T07:26:34.731Z,99.90
2019-03-18T07:29:04.463Z,99.90
2019-03-18T07:31:33.765Z,99.90
2019-03-18T07:34:02.934Z,99.90
2019-03-18T07:36:32.336Z,99.90
2019-03-18T07:39:01.555Z,99.90
2019-03-18T07:41:31.284Z,99.90
2019-03-18T07:44:00.600Z,99.90
2019-03-18T07:46:30.182Z,99.90
2019-03-18T07:49:00.107Z,99.90
2019-03-18T07:51:29.803Z,99.90
2019-03-18T07:54:02.060Z,99.90
2019-03-18T07:56:32.044Z,99.90
2019-03-18T07:59:01.900Z,99.90
2019-03-18T08:01:32.004Z,99.90
2019-03-18T08:04:01.883Z,99.90
2019-03-18T08:06:33.259Z,99.90
2019-03-18T08:09:02.959Z,99.90
2019-03-18T08:11:32.962Z,99.90
2019-03-18T08:14:06.261Z,99.90
2019-03-18T08:16:36.303Z,99.90
2019-03-18T08:19:05.295Z,99.90
2019-03-18T08:21:34.570Z,99.90
2019-03-18T08:24:05.698Z,99.90
2019-03-18T08:26:34.891Z,99.90
2019-03-18T08:29:04.443Z,99.90
2019-03-18T08:31:33.772Z,99.90
2019-03-18T08:34:05.294Z,99.90
2019-03-18T08:36:36.105Z,99.90
2019-03-18T08:39:08.102Z,99.90
2019-03-18T08:41:37.920Z,99.90
2019-03-18T08:44:07.942Z,99.90
2019-03-18T08:46:37.140Z,99.90
2019-03-18T08:49:07.667Z,99.90
2019-03-18T08:51:37.244Z,99.90
2019-03-18T08:54:06.625Z,99.90
2019-03-18T08:56:36.684Z,99.90
2019-03-18T08:59:09.281Z,99.90
2019-03-18T09:01:38.866Z,99.90
2019-03-18T09:04:08.487Z,99.90
2019-03-18T09:06:38.027Z,99.90
2019-03-18T09:09:08.853Z,99.90
2019-03-18T09:11:38.252Z,99.90
2019-03-18T09:14:07.550Z,99.90
2019-03-18T09:16:37.049Z,99.90
2019-03-18T09:19:09.108Z,99.90
2019-03-18T09:21:37.436Z,99.90
2019-03-18T09:24:06.694Z,99.90
2019-03-18T09:26:36.082Z,99.90
2019-03-18T09:29:05.490Z,99.90
2019-03-18T09:31:34.903Z,99.90
2019-03-18T09:34:04.525Z,99.90
2019-03-18T09:36:34.143Z,99.90
2019-03-18T09:39:04.969Z,99.30
2019-03-18T09:41:34.833Z,99.90
2019-03-18T09:44:04.154Z,99.90
2019-03-18T09:46:33.785Z,99.90
2019-03-18T09:49:03.069Z,99.90
2019-03-18T09:51:32.949Z,99.90
2019-03-18T09:54:02.393Z,99.90
2019-03-18T09:56:32.971Z,99.90
2019-03-18T09:59:04.370Z,99.90
2019-03-18T10:01:36.542Z,99.90
2019-03-18T10:04:07.006Z,99.90
2019-03-18T10:06:37.130Z,99.90
2019-03-18T10:09:12.134Z,99.90
2019-03-18T10:11:45.146Z,99.90
2019-03-18T10:14:15.681Z,99.90
2019-03-18T10:16:46.187Z,99.90
2019-03-18T10:19:16.907Z,99.90
2019-03-18T10:21:48.248Z,99.90
2019-03-18T10:24:18.449Z,99.90
2019-03-18T10:26:48.628Z,99.90
2019-03-18T10:29:18.387Z,99.90
2019-03-18T10:31:48.986Z,99.90
2019-03-18T10:34:18.718Z,99.90
2019-03-18T10:36:53.046Z,99.90
2019-03-18T10:39:22.608Z,99.90
2019-03-18T10:41:52.097Z,99.90
2019-03-18T10:44:22.931Z,99.90
2019-03-18T10:46:53.615Z,99.90
2019-03-18T10:49:23.266Z,99.90
2019-03-18T10:51:53.152Z,99.90
2019-03-18T10:54:30.743Z,99.90
2019-03-18T10:56:56.238Z,99.90
2019-03-18T10:59:26.051Z,99.90
2019-03-18T11:01:55.987Z,99.90
2019-03-18T11:04:25.463Z,99.90
2019-03-18T11:06:56.252Z,99.90
2019-03-18T11:09:26.990Z,99.90
2019-03-18T11:11:57.449Z,99.90
2019-03-18T11:14:29.463Z,99.90
2019-03-18T11:17:00.402Z,99.90
2019-03-18T11:19:30.647Z,99.90
2019-03-18T11:22:02.275Z,99.90
2019-03-18T11:24:31.828Z,99.90
2019-03-18T11:27:01.602Z,99.90
2019-03-18T11:29:31.282Z,99.90
2019-03-18T11:32:01.942Z,99.90
2019-03-18T11:34:31.945Z,99.90
2019-03-18T11:37:01.933Z,99.90
2019-03-18T11:39:31.547Z,99.90
2019-03-18T11:42:00.923Z,99.90
2019-03-18T11:44:30.123Z,99.90
2019-03-18T11:47:00.638Z,99.90
2019-03-18T11:49:39.170Z,99.90
2019-03-18T11:52:01.460Z,99.90
2019-03-18T11:54:32.252Z,99.90
2019-03-18T11:57:02.881Z,99.90
2019-03-18T11:59:33.689Z,99.90
2019-03-18T12:02:04.565Z,99.90
2019-03-18T12:04:34.729Z,99.90
2019-03-18T12:07:04.645Z,99.90
2019-03-18T12:09:34.291Z,99.90
2019-03-18T12:12:03.934Z,99.90
2019-03-18T12:14:33.203Z,99.90
2019-03-18T12:17:02.706Z,99.90
2019-03-18T12:19:32.303Z,99.90
2019-03-18T12:22:01.968Z,99.90
2019-03-18T12:24:32.121Z,99.90
2019-03-18T12:27:01.411Z,99.90
2019-03-18T12:29:31.513Z,99.90
2019-03-18T12:32:01.667Z,99.90
2019-03-18T12:34:31.751Z,99.90
2019-03-18T12:37:02.630Z,99.90
2019-03-18T12:39:32.538Z,99.90
2019-03-18T12:42:02.190Z,99.90
2019-03-18T12:44:32.128Z,99.90
2019-03-18T12:47:02.039Z,99.90
2019-03-18T12:49:31.848Z,99.90
2019-03-18T12:52:01.549Z,99.90
2019-03-18T12:54:31.967Z,99.90
2019-03-18T12:57:01.647Z,99.90
2019-03-18T12:59:31.838Z,99.90
2019-03-18T13:02:02.562Z,99.90
2019-03-18T13:04:36.121Z,99.90
2019-03-18T13:07:06.759Z,99.90
2019-03-18T13:09:41.102Z,99.90
2019-03-18T13:12:13.267Z,99.90
2019-03-18T13:14:42.626Z,99.90
2019-03-18T13:17:13.468Z,99.90
2019-03-18T13:19:46.594Z,99.90
2019-03-18T13:22:16.046Z,99.90
2019-03-18T13:24:46.487Z,99.90
2019-03-18T13:27:18.047Z,99.90
2019-03-18T13:29:48.816Z,99.90
2019-03-18T13:32:20.852Z,99.90
2019-03-18T13:34:52.487Z,99.90
2019-03-18T13:37:25.466Z,99.90
2019-03-18T13:39:57.936Z,99.90
2019-03-18T13:42:28.687Z,99.90
2019-03-18T13:44:59.748Z,99.90
2019-03-18T13:47:31.459Z,99.90
2019-03-18T13:50:03.257Z,99.90
2019-03-18T13:52:35.830Z,99.90
2019-03-18T13:55:06.900Z,99.90
2019-03-18T13:57:36.748Z,99.90
2019-03-18T14:00:12.258Z,99.90
2019-03-18T14:02:42.267Z,99.90
2019-03-18T14:05:23.306Z,99.90
2019-03-18T14:08:00.441Z,99.90
2019-03-18T14:10:26.956Z,99.90
2019-03-18T14:12:56.951Z,99.90
2019-03-18T14:15:27.163Z,99.90
2019-03-18T14:17:57.344Z,99.90
2019-03-18T14:20:28.826Z,99.90
2019-03-18T14:22:59.525Z,99.90
2019-03-18T14:25:30.016Z,99.90
2019-03-18T14:28:05.449Z,99.90
2019-03-18T14:30:35.483Z,99.90
2019-03-18T14:33:05.819Z,99.90
2019-03-18T14:35:38.272Z,99.90
2019-03-18T14:38:17.942Z,99.90
2019-03-18T14:40:48.963Z,99.90
2019-03-18T14:43:20.719Z,99.90
2019-03-18T14:45:50.612Z,99.90
2019-03-18T14:48:20.536Z,99.90
2019-03-18T14:50:53.400Z,99.90
2019-03-18T14:53:23.264Z,99.90
2019-03-18T14:55:56.444Z,99.90
2019-03-18T14:58:26.301Z,99.90
2019-03-18T15:00:56.452Z,99.90
2019-03-18T15:03:26.924Z,99.90
2019-03-18T15:05:57.083Z,99.90
2019-03-18T15:08:27.184Z,99.90
2019-03-18T15:10:56.565Z,99.90
2019-03-18T15:13:31.050Z,99.90
2019-03-18T15:16:03.051Z,99.90
2019-03-18T15:18:32.584Z,99.90
2019-03-18T15:21:02.822Z,99.90
2019-03-18T15:23:35.960Z,99.90
2019-03-18T15:26:06.022Z,99.90
2019-03-18T15:28:35.379Z,99.90
2019-03-18T15:31:05.840Z,99.90
2019-03-18T15:33:36.400Z,99.90
2019-03-18T15:36:11.220Z,99.90
2019-03-18T15:38:41.359Z,99.90
2019-03-18T15:41:11.360Z,99.90
2019-03-18T15:43:40.963Z,99.90
2019-03-18T15:46:10.880Z,99.90
2019-03-18T15:48:40.742Z,99.90
2019-03-18T15:51:13.744Z,99.90
2019-03-18T15:53:44.861Z,99.90
2019-03-18T15:56:14.368Z,99.90
2019-03-18T15:58:44.480Z,99.90
2019-03-18T16:01:14.083Z,99.90
2019-03-18T16:03:45.722Z,99.90
2019-03-18T16:06:15.041Z,99.90
2019-03-18T16:08:52.700Z,99.90
2019-03-18T16:11:23.233Z,99.90
2019-03-18T16:13:53.581Z,99.90
2019-03-18T16:16:23.579Z,99.90
2019-03-18T16:18:54.060Z,99.90
2019-03-18T16:21:23.862Z,99.90
2019-03-18T16:23:53.879Z,99.90
2019-03-18T16:26:23.948Z,99.90
2019-03-18T16:28:54.681Z,99.90
2019-03-18T16:31:25.700Z,99.90
2019-03-18T16:33:56.123Z,99.90
2019-03-18T16:36:25.622Z,99.90
2019-03-18T16:38:56.879Z,99.90
2019-03-18T16:41:26.464Z,99.90
2019-03-18T16:44:00.598Z,99.90
2019-03-18T16:46:30.660Z,99.90
2019-03-18T16:49:00.761Z,99.90
2019-03-18T16:51:35.238Z,99.90
2019-03-18T16:54:05.005Z,99.90
2019-03-18T16:56:36.379Z,99.90
2019-03-18T16:59:06.720Z,99.90
2019-03-18T17:01:36.570Z,99.90
2019-03-18T17:04:07.911Z,99.90
2019-03-18T17:06:38.253Z,99.90
2019-03-18T17:09:10.200Z,99.90
2019-03-18T17:11:42.944Z,99.90
2019-03-18T17:14:14.124Z,99.90
2019-03-18T17:16:44.460Z,99.90
2019-03-18T17:19:15.460Z,99.90
2019-03-18T17:21:45.865Z,99.90
2019-03-18T17:24:15.380Z,99.90
2019-03-18T17:26:47.580Z,99.90
2019-03-18T17:29:20.862Z,99.90
2019-03-18T17:31:50.942Z,99.90
2019-03-18T17:34:20.842Z,99.90
2019-03-18T17:36:50.619Z,99.90
2019-03-18T17:39:20.552Z,99.90
2019-03-18T17:41:49.880Z,99.90
2019-03-18T17:44:21.280Z,99.90
2019-03-18T17:46:51.699Z,99.90
2019-03-18T17:49:21.060Z,99.90
2019-03-18T17:51:51.179Z,99.90
2019-03-18T17:54:20.819Z,99.90
2019-03-18T17:56:50.488Z,99.90
2019-03-18T17:59:19.780Z,99.90
2019-03-18T18:01:50.130Z,99.90
2019-03-18T18:04:19.882Z,99.90
2019-03-18T18:06:52.820Z,99.90
2019-03-18T18:09:23.201Z,99.90
2019-03-18T18:11:52.770Z,99.90
2019-03-18T18:14:23.471Z,99.90
2019-03-18T18:16:55.610Z,99.90
2019-03-18T18:19:25.815Z,99.90
2019-03-18T18:21:58.742Z,99.90
2019-03-18T18:24:29.819Z,99.90
2019-03-18T18:27:01.801Z,99.90
2019-03-18T18:29:39.179Z,99.90
2019-03-18T18:32:14.966Z,99.90
2019-03-18T18:34:51.460Z,99.90
2019-03-18T18:37:26.121Z,99.90
2019-03-18T18:40:04.531Z,99.90
2019-03-18T18:42:40.284Z,99.90
2019-03-18T18:45:13.859Z,99.90
2019-03-18T18:47:46.187Z,99.90
2019-03-18T18:50:17.825Z,99.90
2019-03-18T18:52:53.006Z,99.90
2019-03-18T18:55:30.703Z,99.90
2019-03-18T18:58:04.740Z,99.90
2019-03-18T19:00:40.707Z,99.90
2019-03-18T19:03:13.499Z,99.90
2019-03-18T19:05:44.280Z,99.90
2019-03-18T19:08:20.388Z,99.90
2019-03-18T19:10:57.441Z,99.90
2019-03-18T19:13:33.408Z,99.90
2019-03-18T19:16:09.905Z,99.90
2019-03-18T19:18:43.176Z,99.90
2019-03-18T19:21:17.660Z,99.90
2019-03-18T19:23:55.607Z,99.90
2019-03-18T19:26:30.370Z,99.90
2019-03-18T19:29:09.040Z,99.90
2019-03-18T19:31:40.254Z,99.90
2019-03-18T19:34:13.663Z,99.90
2019-03-18T19:36:46.823Z,99.90
2019-03-18T19:39:20.770Z,99.90
2019-03-18T19:41:54.957Z,99.90
2019-03-18T19:44:27.822Z,99.90
2019-03-18T19:46:59.485Z,99.90
2019-03-18T19:49:31.625Z,99.90
2019-03-18T19:52:10.756Z,99.90
2019-03-18T19:54:51.839Z,99.90
2019-03-18T19:57:31.724Z,99.90
2019-03-18T20:00:15.937Z,99.90
2019-03-18T20:02:49.906Z,99.90
2019-03-18T20:05:34.265Z,99.90
2019-03-18T20:08:04.966Z,99.90
2019-03-18T20:10:35.943Z,99.90
2019-03-18T20:13:05.865Z,99.90
2019-03-18T20:15:36.364Z,99.90
2019-03-18T20:18:10.853Z,99.90
2019-03-18T20:20:41.504Z,99.90
2019-03-18T20:23:13.145Z,99.90
2019-03-18T20:25:51.408Z,99.90
2019-03-18T20:28:34.185Z,99.90
2019-03-18T20:31:05.094Z,99.90
2019-03-18T20:33:35.337Z,99.90
2019-03-18T20:36:05.611Z,99.90
2019-03-18T20:38:39.904Z,99.90
2019-03-18T20:41:13.078Z,99.90
2019-03-18T20:43:46.324Z,99.90
2019-03-18T20:46:28.602Z,99.90
2019-03-18T20:49:00.264Z,99.90
2019-03-18T20:51:31.786Z,99.90
2019-03-18T20:54:12.006Z,99.90
2019-03-18T20:56:38.345Z,99.90
2019-03-18T20:59:09.412Z,99.90
2019-03-18T21:01:46.090Z,99.90
2019-03-18T21:04:16.413Z,99.90
2019-03-18T21:06:48.230Z,99.90
2019-03-18T21:09:19.360Z,99.90
2019-03-18T21:11:49.121Z,99.90
2019-03-18T21:14:18.624Z,99.90
2019-03-18T21:16:50.441Z,99.90
2019-03-18T21:19:19.439Z,99.90
2019-03-18T21:21:53.635Z,99.90
2019-03-18T21:24:25.276Z,99.90
2019-03-18T21:26:55.693Z,99.90
2019-03-18T21:29:26.685Z,99.90
2019-03-18T21:31:57.050Z,99.90
2019-03-18T21:34:26.663Z,99.90
2019-03-18T21:36:56.656Z,99.90
2019-03-18T21:39:27.679Z,99.90
2019-03-18T21:41:58.160Z,99.90
2019-03-18T21:44:27.538Z,99.90
2019-03-18T21:46:56.959Z,99.90
2019-03-18T21:49:26.699Z,99.90
2019-03-18T21:51:56.560Z,99.90
2019-03-18T21:54:34.157Z,99.90
2019-03-18T21:57:00.081Z,99.90
2019-03-18T21:59:29.660Z,99.90
2019-03-18T22:01:59.759Z,99.90
2019-03-18T22:04:29.359Z,99.90
2019-03-18T22:06:59.939Z,99.90
2019-03-18T22:09:29.720Z,99.90
2019-03-18T22:11:59.380Z,99.90
2019-03-18T22:14:29.260Z,99.90
2019-03-18T22:16:58.756Z,99.90
2019-03-18T22:19:29.326Z,99.90
2019-03-18T22:22:00.622Z,99.90
2019-03-18T22:24:30.699Z,99.90
2019-03-18T22:27:00.199Z,99.90
2019-03-18T22:29:30.865Z,99.90
2019-03-18T22:32:00.699Z,99.90
2019-03-18T22:34:30.679Z,99.90
2019-03-18T22:37:00.801Z,99.90
2019-03-18T22:39:32.659Z,99.90
2019-03-18T22:42:02.719Z,99.90
2019-03-18T22:44:32.358Z,99.90
2019-03-18T22:47:04.583Z,99.90
2019-03-18T22:49:34.383Z,99.90
2019-03-18T22:52:04.813Z,99.90
2019-03-18T22:54:34.506Z,99.90
2019-03-18T22:57:04.024Z,99.90
2019-03-18T22:59:35.005Z,99.90
2019-03-18T23:02:04.782Z,99.90
2019-03-18T23:04:35.502Z,99.90
2019-03-18T23:07:05.265Z,99.90
2019-03-18T23:09:35.263Z,99.90
2019-03-18T23:12:05.403Z,99.90
2019-03-18T23:14:35.359Z,99.90
2019-03-18T23:17:04.801Z,99.90
2019-03-18T23:19:34.119Z,99.90
2019-03-18T23:22:04.060Z,99.90
2019-03-18T23:24:34.246Z,99.90
2019-03-18T23:27:04.179Z,99.90
2019-03-18T23:29:35.120Z,99.90
2019-03-18T23:32:05.160Z,99.90
2019-03-18T23:34:38.206Z,99.90
2019-03-18T23:37:07.789Z,99.90
2019-03-18T23:39:37.500Z,99.90
2019-03-18T23:42:07.499Z,99.90
2019-03-18T23:44:37.380Z,99.90
2019-03-18T23:47:07.659Z,99.90
2019-03-18T23:49:37.319Z,99.90
2019-03-18T23:52:07.419Z,99.90
2019-03-18T23:54:38.679Z,99.90
2019-03-18T23:57:08.804Z,99.90
2019-03-18T23:59:39.130Z,99.90
